Time;durP1;ratioP1;P1;durP2;ratioP2;P2;SDS_P1;SDS_P2;PMS_P1;PMS_P2;Temp;Humidity;BMP_temperature;BMP_pressure;BME280_temperature;BME280_humidity;BME280_pressure;Samples;Min_cycle;Max_cycle;Signal;HPM_P1;HPM_P2
2023/05/12 00:02:13;;;;;;;1.53;1.00;;;;;;;;;;5055870;27;86257;-51
2023/05/12 00:04:41;;;;;;;1.53;0.90;;;;;;;;;;5050609;27;89239;-51
2023/05/12 00:07:11;;;;;;;0.60;0.60;;;;;;;;;;5061115;27;87677;-51
2023/05/12 00:09:40;;;;;;;0.33;0.30;;;;;;;;;;5051640;27;88910;-51
2023/05/12 00:12:09;;;;;;;0.60;0.60;;;;;;;;;;5051034;27;87014;-51
2023/05/12 00:14:37;;;;;;;1.23;0.70;;;;;;;;;;5051293;27;89310;-51
2023/05/12 00:17:05;;;;;;;1.63;0.50;;;;;;;;;;5059779;27;88774;-51
2023/05/12 00:19:35;;;;;;;0.60;0.60;;;;;;;;;;5062217;27;87109;-51
2023/05/12 00:22:03;;;;;;;0.73;0.63;;;;;;;;;;5061034;27;87049;-51
2023/05/12 00:24:33;;;;;;;1.07;0.83;;;;;;;;;;5060405;27;89191;-51
2023/05/12 00:27:01;;;;;;;0.70;0.60;;;;;;;;;;5062054;27;88886;-51
2023/05/12 00:29:29;;;;;;;1.17;0.50;;;;;;;;;;5061582;27;87013;-51
2023/05/12 00:31:58;;;;;;;1.50;0.70;;;;;;;;;;5061594;27;87105;-51
2023/05/12 00:34:27;;;;;;;1.17;0.70;;;;;;;;;;5060209;27;88765;-51
2023/05/12 00:36:56;;;;;;;0.50;0.40;;;;;;;;;;5061484;27;89931;-51
2023/05/12 00:39:24;;;;;;;0.80;0.80;;;;;;;;;;5061288;27;87122;-51
2023/05/12 00:41:56;;;;;;;1.03;0.80;;;;;;;;;;5060996;27;87505;-51
2023/05/12 00:44:24;;;;;;;0.50;0.50;;;;;;;;;;5061661;27;88985;-51
2023/05/12 00:46:54;;;;;;;4.07;0.63;;;;;;;;;;5061422;27;88867;-51
2023/05/12 00:49:22;;;;;;;1.90;0.83;;;;;;;;;;5061204;27;87083;-51
2023/05/12 00:51:50;;;;;;;1.00;0.60;;;;;;;;;;5061807;27;86734;-51
2023/05/12 00:54:19;;;;;;;0.50;0.50;;;;;;;;;;5061582;27;89289;-51
2023/05/12 00:56:47;;;;;;;0.83;0.40;;;;;;;;;;5061325;27;88955;-51
2023/05/12 00:59:16;;;;;;;0.63;0.63;;;;;;;;;;5060911;27;87995;-51
2023/05/12 01:01:45;;;;;;;1.20;0.67;;;;;;;;;;5061736;27;87099;-51
2023/05/12 01:04:13;;;;;;;0.47;0.40;;;;;;;;;;5060494;27;88048;-51
2023/05/12 01:06:44;;;;;;;3.13;0.60;;;;;;;;;;5061047;27;88620;-51
2023/05/12 01:09:12;;;;;;;0.70;0.63;;;;;;;;;;5061242;27;87279;-51
2023/05/12 01:11:40;;;;;;;0.40;0.40;;;;;;;;;;5061116;27;87069;-51
2023/05/12 01:14:09;;;;;;;0.87;0.50;;;;;;;;;;5065516;27;89208;-51
2023/05/12 01:16:40;;;;;;;0.43;0.43;;;;;;;;;;5065159;27;88890;-51
2023/05/12 01:19:09;;;;;;;2.63;0.50;;;;;;;;;;5064528;27;87105;-51
2023/05/12 01:21:37;;;;;;;0.43;0.40;;;;;;;;;;5064645;27;87007;-51
2023/05/12 01:24:06;;;;;;;1.37;0.60;;;;;;;;;;5064481;27;90186;-51
2023/05/12 01:26:36;;;;;;;0.63;0.63;;;;;;;;;;5065039;27;89637;-51
2023/05/12 01:29:04;;;;;;;1.30;0.60;;;;;;;;;;5064855;27;86839;-51
2023/05/12 01:31:33;;;;;;;0.40;0.40;;;;;;;;;;5060311;27;87081;-51
2023/05/12 01:34:01;;;;;;;1.07;0.60;;;;;;;;;;5063278;27;88927;-51
2023/05/12 01:36:30;;;;;;;0.83;0.60;;;;;;;;;;5062400;27;88166;-51
2023/05/12 01:38:58;;;;;;;0.80;0.70;;;;;;;;;;5062590;27;87797;-51
2023/05/12 01:41:27;;;;;;;0.50;0.50;;;;;;;;;;5064423;27;86449;-51
2023/05/12 01:43:56;;;;;;;0.60;0.60;;;;;;;;;;5064071;27;87810;-51
2023/05/12 01:46:24;;;;;;;0.83;0.83;;;;;;;;;;5064369;27;87592;-51
2023/05/12 01:48:53;;;;;;;1.13;0.90;;;;;;;;;;5063700;27;88062;-51
2023/05/12 01:51:21;;;;;;;1.63;1.00;;;;;;;;;;5064113;27;87054;-51
2023/05/12 01:53:49;;;;;;;0.37;0.37;;;;;;;;;;5064601;27;89125;-51
2023/05/12 01:56:18;;;;;;;0.83;0.70;;;;;;;;;;5064678;27;88913;-51
2023/05/12 01:58:47;;;;;;;0.40;0.40;;;;;;;;;;5064257;27;88434;-51
2023/05/12 02:01:16;;;;;;;0.40;0.40;;;;;;;;;;5063749;27;86878;-51
2023/05/12 02:03:45;;;;;;;0.63;0.60;;;;;;;;;;5064448;27;89150;-51
2023/05/12 02:06:13;;;;;;;0.97;0.50;;;;;;;;;;5064177;27;86370;-51
2023/05/12 02:08:42;;;;;;;1.17;0.40;;;;;;;;;;5063593;27;87063;-51
2023/05/12 02:11:10;;;;;;;1.30;0.70;;;;;;;;;;5063600;27;87029;-51
2023/05/12 02:13:38;;;;;;;0.60;0.60;;;;;;;;;;5063271;27;89219;-51
2023/05/12 02:16:07;;;;;;;0.60;0.60;;;;;;;;;;5064002;27;89870;-51
2023/05/12 02:18:36;;;;;;;0.60;0.60;;;;;;;;;;5063802;27;87062;-51
2023/05/12 02:21:05;;;;;;;0.83;0.70;;;;;;;;;;5063662;27;87099;-51
2023/05/12 02:23:33;;;;;;;0.67;0.67;;;;;;;;;;5062551;27;88151;-51
2023/05/12 02:26:01;;;;;;;0.70;0.63;;;;;;;;;;5064330;27;88905;-51
2023/05/12 02:28:30;;;;;;;0.70;0.70;;;;;;;;;;5064032;27;87068;-51
2023/05/12 02:30:58;;;;;;;0.47;0.47;;;;;;;;;;5064316;27;86185;-51
2023/05/12 02:33:26;;;;;;;1.20;0.60;;;;;;;;;;5063939;27;87930;-51
2023/05/12 02:35:56;;;;;;;0.50;0.40;;;;;;;;;;5063565;27;87553;-51
2023/05/12 02:38:24;;;;;;;0.60;0.60;;;;;;;;;;5063165;27;87891;-51
2023/05/12 02:40:53;;;;;;;1.10;0.60;;;;;;;;;;5062927;27;87015;-51
2023/05/12 02:43:22;;;;;;;0.60;0.60;;;;;;;;;;5063848;27;88788;-51
2023/05/12 02:45:50;;;;;;;1.03;0.80;;;;;;;;;;5062942;27;88023;-51
2023/05/12 02:48:19;;;;;;;0.50;0.50;;;;;;;;;;5062943;27;86969;-51
2023/05/12 02:50:47;;;;;;;0.60;0.60;;;;;;;;;;5062733;27;87844;-51
2023/05/12 02:53:17;;;;;;;0.67;0.50;;;;;;;;;;5062760;27;88966;-51
2023/05/12 02:55:45;;;;;;;0.60;0.60;;;;;;;;;;5052178;27;87664;-51
2023/05/12 02:58:13;;;;;;;0.57;0.40;;;;;;;;;;5063454;27;87042;-51
2023/05/12 03:00:42;;;;;;;0.40;0.40;;;;;;;;;;5063329;27;87424;-51
2023/05/12 03:03:10;;;;;;;0.67;0.53;;;;;;;;;;5062839;27;89090;-51
2023/05/12 03:05:38;;;;;;;0.83;0.60;;;;;;;;;;5063451;27;87602;-51
2023/05/12 03:08:07;;;;;;;0.87;0.60;;;;;;;;;;5063308;27;87131;-51
2023/05/12 03:10:36;;;;;;;0.60;0.60;;;;;;;;;;5063295;27;86910;-51
2023/05/12 03:13:05;;;;;;;3.47;0.90;;;;;;;;;;5063576;27;89256;-51
2023/05/12 03:15:33;;;;;;;0.47;0.47;;;;;;;;;;5063293;27;88884;-51
2023/05/12 03:18:01;;;;;;;0.60;0.60;;;;;;;;;;5062981;27;86961;-51
2023/05/12 03:20:30;;;;;;;1.27;0.70;;;;;;;;;;5063340;27;86454;-51
2023/05/12 03:22:58;;;;;;;0.87;0.50;;;;;;;;;;5062878;27;89244;-51
2023/05/12 03:25:26;;;;;;;0.77;0.77;;;;;;;;;;5063350;27;88970;-51
2023/05/12 03:27:56;;;;;;;0.40;0.40;;;;;;;;;;5062668;27;87944;-51
2023/05/12 03:30:24;;;;;;;0.50;0.50;;;;;;;;;;5062526;27;87018;-51
2023/05/12 03:32:53;;;;;;;1.30;0.70;;;;;;;;;;5062800;27;89077;-51
2023/05/12 03:35:21;;;;;;;1.53;0.83;;;;;;;;;;5061808;27;87933;-51
2023/05/12 03:37:49;;;;;;;0.53;0.53;;;;;;;;;;5063045;27;87226;-51
2023/05/12 03:40:18;;;;;;;1.07;0.40;;;;;;;;;;5062663;27;87150;-51
2023/05/12 03:42:47;;;;;;;1.00;0.77;;;;;;;;;;5062100;27;89208;-51
2023/05/12 03:45:16;;;;;;;1.00;0.40;;;;;;;;;;5061952;27;88910;-51
2023/05/12 03:47:45;;;;;;;0.40;0.40;;;;;;;;;;5061939;27;87049;-51
2023/05/12 03:50:13;;;;;;;0.70;0.70;;;;;;;;;;5062961;27;86953;-51
2023/05/12 03:52:41;;;;;;;0.40;0.40;;;;;;;;;;5061995;27;90062;-51
2023/05/12 03:55:10;;;;;;;0.57;0.57;;;;;;;;;;5061005;27;89803;-51
2023/05/12 03:57:38;;;;;;;0.40;0.40;;;;;;;;;;5062553;27;87062;-51
2023/05/12 04:00:07;;;;;;;1.00;0.77;;;;;;;;;;5061935;27;87272;-51
2023/05/12 04:02:36;;;;;;;0.90;0.43;;;;;;;;;;5062685;27;89098;-51
2023/05/12 04:05:07;;;;;;;0.40;0.40;;;;;;;;;;5062151;27;87952;-51
2023/05/12 04:07:35;;;;;;;0.70;0.57;;;;;;;;;;5061703;27;87023;-51
2023/05/12 04:10:04;;;;;;;0.50;0.50;;;;;;;;;;5062333;27;86217;-50
2023/05/12 04:12:32;;;;;;;0.83;0.83;;;;;;;;;;5061705;27;89040;-50
2023/05/12 04:15:00;;;;;;;0.60;0.60;;;;;;;;;;5061643;27;88595;-55
2023/05/12 04:17:29;;;;;;;0.57;0.50;;;;;;;;;;5060422;27;87898;-55
2023/05/12 04:19:59;;;;;;;0.67;0.67;;;;;;;;;;5062971;27;86990;-53
2023/05/12 04:22:27;;;;;;;2.30;0.60;;;;;;;;;;5062555;27;89070;-53
2023/05/12 04:24:56;;;;;;;1.43;0.80;;;;;;;;;;5063029;27;89022;-53
2023/05/12 04:27:24;;;;;;;1.70;0.60;;;;;;;;;;5062243;27;87029;-54
2023/05/12 04:29:52;;;;;;;0.50;0.50;;;;;;;;;;5061799;27;87139;-54
2023/05/12 04:32:20;;;;;;;0.47;0.47;;;;;;;;;;5062059;27;88300;-54
2023/05/12 04:34:50;;;;;;;0.50;0.50;;;;;;;;;;5062698;27;89003;-54
2023/05/12 04:37:21;;;;;;;0.50;0.40;;;;;;;;;;5062228;27;87086;-55
2023/05/12 04:39:49;;;;;;;0.67;0.40;;;;;;;;;;5061033;27;87058;-54
2023/05/12 04:42:17;;;;;;;0.50;0.50;;;;;;;;;;5058997;27;88972;-53
2023/05/12 04:44:46;;;;;;;0.30;0.30;;;;;;;;;;5060631;27;89910;-54
2023/05/12 04:47:14;;;;;;;0.30;0.30;;;;;;;;;;5060369;27;87106;-55
2023/05/12 04:49:42;;;;;;;0.37;0.37;;;;;;;;;;5061575;27;86906;-54
2023/05/12 04:52:11;;;;;;;0.53;0.53;;;;;;;;;;5061131;27;89137;-55
2023/05/12 04:54:40;;;;;;;0.53;0.50;;;;;;;;;;5051400;27;88841;-55
2023/05/12 04:57:08;;;;;;;0.50;0.50;;;;;;;;;;5062565;27;87029;-54
2023/05/12 04:59:37;;;;;;;0.50;0.40;;;;;;;;;;5061118;27;86694;-54
2023/05/12 05:02:08;;;;;;;0.53;0.50;;;;;;;;;;5061990;27;88025;-51
2023/05/12 05:04:37;;;;;;;0.50;0.40;;;;;;;;;;5060737;27;88889;-51
2023/05/12 05:07:05;;;;;;;0.60;0.57;;;;;;;;;;5061934;27;87905;-51
2023/05/12 05:09:33;;;;;;;0.33;0.30;;;;;;;;;;5060854;27;86934;-51
2023/05/12 05:12:06;;;;;;;1.07;0.60;;;;;;;;;;5061577;27;88229;-51
2023/05/12 05:14:34;;;;;;;1.13;0.77;;;;;;;;;;5058214;27;88669;-51
2023/05/12 05:17:02;;;;;;;0.30;0.30;;;;;;;;;;5061471;27;87516;-51
2023/05/12 05:19:31;;;;;;;0.73;0.73;;;;;;;;;;5060913;27;86952;-51
2023/05/12 05:22:19;;;;;;;0.70;0.70;;;;;;;;;;5060158;27;90930;-51
2023/05/12 05:24:47;;;;;;;0.50;0.50;;;;;;;;;;5060884;27;89035;-50
2023/05/12 05:27:17;;;;;;;0.40;0.40;;;;;;;;;;5061115;27;87432;-50
2023/05/12 05:29:45;;;;;;;0.40;0.40;;;;;;;;;;5061513;27;87123;-50
2023/05/12 05:32:14;;;;;;;0.63;0.60;;;;;;;;;;5060856;27;89095;-51
2023/05/12 05:34:42;;;;;;;0.43;0.43;;;;;;;;;;5061189;27;89979;-50
2023/05/12 05:37:11;;;;;;;1.37;0.80;;;;;;;;;;5061162;27;87057;-50
2023/05/12 05:39:40;;;;;;;0.40;0.40;;;;;;;;;;5061717;27;86999;-50
2023/05/12 05:42:08;;;;;;;0.83;0.50;;;;;;;;;;5058974;27;89065;-54
2023/05/12 05:44:38;;;;;;;0.60;0.60;;;;;;;;;;5055279;27;87981;-55
2023/05/12 05:47:06;;;;;;;1.20;0.50;;;;;;;;;;5058905;27;88666;-54
2023/05/12 05:49:34;;;;;;;1.83;0.60;;;;;;;;;;5059988;27;87079;-50
2023/05/12 05:52:03;;;;;;;0.40;0.40;;;;;;;;;;5060595;27;88812;-53
2023/05/12 05:54:31;;;;;;;0.57;0.47;;;;;;;;;;5060365;27;88903;-53
2023/05/12 05:57:01;;;;;;;9.93;0.60;;;;;;;;;;5060227;27;88065;-53
2023/05/12 05:59:29;;;;;;;0.63;0.53;;;;;;;;;;5061722;27;86969;-53
2023/05/12 06:01:59;;;;;;;0.37;0.37;;;;;;;;;;5059289;27;89383;-53
2023/05/12 06:04:27;;;;;;;0.40;0.40;;;;;;;;;;5064531;27;87744;-53
2023/05/12 06:06:56;;;;;;;0.50;0.50;;;;;;;;;;5064492;27;88411;-53
2023/05/12 06:09:24;;;;;;;0.50;0.50;;;;;;;;;;5064358;27;87114;-53
2023/05/12 06:11:52;;;;;;;0.37;0.37;;;;;;;;;;5064097;27;88989;-53
2023/05/12 06:14:20;;;;;;;0.40;0.40;;;;;;;;;;5064662;27;87658;-53
2023/05/12 06:16:49;;;;;;;0.60;0.60;;;;;;;;;;5063942;27;86999;-53
2023/05/12 06:19:19;;;;;;;1.47;0.60;;;;;;;;;;5061825;27;87071;-53
2023/05/12 06:21:47;;;;;;;0.40;0.40;;;;;;;;;;5052648;27;89962;-53
2023/05/12 06:24:15;;;;;;;2.03;0.80;;;;;;;;;;5063820;27;89892;-53
2023/05/12 06:26:43;;;;;;;0.40;0.40;;;;;;;;;;5062922;27;87022;-53
2023/05/12 06:29:12;;;;;;;0.50;0.50;;;;;;;;;;5062794;27;87083;-52
2023/05/12 06:31:40;;;;;;;0.43;0.43;;;;;;;;;;5063224;27;88824;-61
2023/05/12 06:34:08;;;;;;;0.63;0.63;;;;;;;;;;5063270;27;88816;-59
2023/05/12 06:36:38;;;;;;;1.47;0.80;;;;;;;;;;5063822;27;87004;-59
2023/05/12 06:39:06;;;;;;;1.40;0.90;;;;;;;;;;5064019;27;86382;-60
2023/05/12 06:41:35;;;;;;;2.27;1.17;;;;;;;;;;5063206;27;89237;-59
2023/05/12 06:44:05;;;;;;;1.47;1.37;;;;;;;;;;5064010;27;87995;-59
2023/05/12 06:46:33;;;;;;;1.67;1.30;;;;;;;;;;5063893;27;87776;-59
2023/05/12 06:49:01;;;;;;;2.23;1.83;;;;;;;;;;5063575;27;86927;-59
2023/05/12 06:51:30;;;;;;;2.10;1.27;;;;;;;;;;5064143;27;89178;-59
2023/05/12 06:53:59;;;;;;;3.23;1.67;;;;;;;;;;5063669;27;88776;-59
2023/05/12 06:56:28;;;;;;;1.80;1.53;;;;;;;;;;5064039;27;87040;-59
2023/05/12 06:58:59;;;;;;;2.37;1.73;;;;;;;;;;5063375;27;87052;-60
2023/05/12 07:01:28;;;;;;;3.20;2.07;;;;;;;;;;5063002;27;87820;-58
2023/05/12 07:03:56;;;;;;;3.17;1.67;;;;;;;;;;5063725;27;88006;-59
2023/05/12 07:06:26;;;;;;;2.83;1.80;;;;;;;;;;5063652;27;87118;-59
2023/05/12 07:08:54;;;;;;;3.73;1.67;;;;;;;;;;5063381;27;87014;-59
2023/05/12 07:11:24;;;;;;;3.07;2.03;;;;;;;;;;5062533;27;90034;-59
2023/05/12 07:13:52;;;;;;;4.47;1.83;;;;;;;;;;5063736;27;89799;-59
2023/05/12 07:16:21;;;;;;;5.03;2.60;;;;;;;;;;5064363;27;86876;-59
2023/05/12 07:18:49;;;;;;;3.30;2.30;;;;;;;;;;5063189;27;86947;-59
2023/05/12 07:21:17;;;;;;;3.20;2.10;;;;;;;;;;5063322;27;89195;-59
2023/05/12 07:23:46;;;;;;;2.87;1.80;;;;;;;;;;5063463;27;88975;-59
2023/05/12 07:26:14;;;;;;;3.10;1.73;;;;;;;;;;5063339;27;86967;-59
2023/05/12 07:28:44;;;;;;;3.70;2.10;;;;;;;;;;5063785;27;86373;-60
2023/05/12 07:31:12;;;;;;;3.97;2.07;;;;;;;;;;5062657;27;88825;-60
2023/05/12 07:33:41;;;;;;;2.87;2.10;;;;;;;;;;5063065;27;89039;-60
2023/05/12 07:36:09;;;;;;;6.60;1.77;;;;;;;;;;5063055;27;87942;-59
2023/05/12 07:38:38;;;;;;;3.10;1.87;;;;;;;;;;5063388;27;87035;-60
2023/05/12 07:41:07;;;;;;;4.10;2.77;;;;;;;;;;5063485;27;88965;-57
2023/05/12 07:43:35;;;;;;;4.13;1.73;;;;;;;;;;5062375;27;88779;-57
2023/05/12 07:46:05;;;;;;;4.43;2.60;;;;;;;;;;5062972;27;87110;-58
2023/05/12 07:48:38;;;;;;;7.73;2.23;;;;;;;;;;5062951;27;86952;-57
2023/05/12 07:51:07;;;;;;;4.60;2.30;;;;;;;;;;5063092;27;88184;-57
2023/05/12 07:53:35;;;;;;;3.87;2.43;;;;;;;;;;5063695;27;87958;-57
2023/05/12 07:56:04;;;;;;;4.30;2.33;;;;;;;;;;5063307;27;86940;-58
2023/05/12 07:58:32;;;;;;;4.33;2.33;;;;;;;;;;5063214;27;87045;-57
2023/05/12 08:01:04;;;;;;;3.50;2.40;;;;;;;;;;5061747;27;90152;-57
2023/05/12 08:03:34;;;;;;;2.70;1.87;;;;;;;;;;5063146;27;88928;-57
2023/05/12 08:06:04;;;;;;;3.73;2.30;;;;;;;;;;5063459;27;86766;-58
2023/05/12 08:08:33;;;;;;;6.13;2.77;;;;;;;;;;5062965;27;86958;-57
2023/05/12 08:11:01;;;;;;;2.93;1.80;;;;;;;;;;5062349;27;88178;-58
2023/05/12 08:13:29;;;;;;;3.87;1.77;;;;;;;;;;5062407;27;88833;-56
2023/05/12 08:15:57;;;;;;;3.57;1.67;;;;;;;;;;5062836;27;87048;-56
2023/05/12 08:18:26;;;;;;;4.10;2.20;;;;;;;;;;5063305;27;86322;-56
2023/05/12 08:20:55;;;;;;;4.60;2.57;;;;;;;;;;5062357;27;89130;-55
2023/05/12 08:23:24;;;;;;;3.23;1.93;;;;;;;;;;5062213;27;89012;-56
2023/05/12 08:25:52;;;;;;;5.40;2.13;;;;;;;;;;5061953;27;87853;-55
2023/05/12 08:28:20;;;;;;;3.07;1.67;;;;;;;;;;5062620;27;87064;-57
2023/05/12 08:30:49;;;;;;;3.17;2.03;;;;;;;;;;5062161;27;87216;-56
2023/05/12 08:33:17;;;;;;;4.70;2.43;;;;;;;;;;5062136;27;89047;-56
2023/05/12 08:35:45;;;;;;;5.13;1.70;;;;;;;;;;5062316;27;87049;-56
2023/05/12 08:38:15;;;;;;;5.87;2.30;;;;;;;;;;5062089;27;87103;-57
2023/05/12 08:40:45;;;;;;;3.30;2.10;;;;;;;;;;5062204;27;89138;-56
2023/05/12 08:43:14;;;;;;;2.80;1.90;;;;;;;;;;5062174;27;88768;-56
2023/05/12 08:45:42;;;;;;;4.00;2.40;;;;;;;;;;5062000;27;87841;-56
2023/05/12 08:48:12;;;;;;;3.80;2.50;;;;;;;;;;5061690;27;86904;-57
2023/05/12 08:50:40;;;;;;;3.77;2.40;;;;;;;;;;5061149;27;90133;-58
2023/05/12 08:53:09;;;;;;;3.63;2.23;;;;;;;;;;5062251;27;89986;-59
2023/05/12 08:55:40;;;;;;;3.53;2.30;;;;;;;;;;5062489;27;87072;-59
2023/05/12 08:58:18;;;;;;;3.60;1.83;;;;;;;;;;5062313;27;86990;-58
2023/05/12 09:00:57;;;;;;;8.30;2.50;;;;;;;;;;5061936;27;89079;-59
2023/05/12 09:03:26;;;;;;;4.37;2.10;;;;;;;;;;5062202;27;88716;-59
2023/05/12 09:05:54;;;;;;;3.17;2.23;;;;;;;;;;5062150;27;86947;-58
2023/05/12 09:08:22;;;;;;;3.20;1.90;;;;;;;;;;5062315;27;86289;-58
2023/05/12 09:10:52;;;;;;;3.50;1.90;;;;;;;;;;5061475;27;89315;-59
2023/05/12 09:13:21;;;;;;;4.30;2.30;;;;;;;;;;5062098;27;87916;-59
2023/05/12 09:15:51;;;;;;;4.10;2.53;;;;;;;;;;5061311;27;87781;-58
2023/05/12 09:18:19;;;;;;;2.63;1.73;;;;;;;;;;5061761;27;87137;-58
2023/05/12 09:20:48;;;;;;;5.07;2.27;;;;;;;;;;5061663;27;89163;-58
2023/05/12 09:23:18;;;;;;;4.03;2.43;;;;;;;;;;5061636;27;88994;-58
2023/05/12 09:25:47;;;;;;;13.27;2.33;;;;;;;;;;5062489;27;87062;-58
2023/05/12 09:28:16;;;;;;;3.60;2.23;;;;;;;;;;5062144;27;87046;-57
2023/05/12 09:30:45;;;;;;;2.90;1.80;;;;;;;;;;5061222;27;89136;-59
2023/05/12 09:33:13;;;;;;;5.60;2.30;;;;;;;;;;5063136;27;88994;-58
2023/05/12 09:35:42;;;;;;;6.30;2.03;;;;;;;;;;5065398;27;87428;-59
2023/05/12 09:38:11;;;;;;;3.47;2.10;;;;;;;;;;5065389;27;87130;-58
2023/05/12 09:40:39;;;;;;;3.30;2.20;;;;;;;;;;5064056;27;90159;-58
2023/05/12 09:43:08;;;;;;;6.83;2.20;;;;;;;;;;5064683;27;89786;-58
2023/05/12 09:45:38;;;;;;;4.97;2.40;;;;;;;;;;5065533;27;86981;-58
2023/05/12 09:48:10;;;;;;;2.80;2.27;;;;;;;;;;5065210;27;86917;-58
2023/05/12 09:50:45;;;;;;;3.17;2.03;;;;;;;;;;5064471;27;89415;-58
2023/05/12 09:53:16;;;;;;;2.40;1.87;;;;;;;;;;5064412;27;89288;-58
2023/05/12 09:55:44;;;;;;;3.83;2.60;;;;;;;;;;5064898;27;87015;-56
2023/05/12 09:58:13;;;;;;;2.53;1.67;;;;;;;;;;5065331;27;86280;-56
2023/05/12 10:00:42;;;;;;;3.87;2.00;;;;;;;;;;5064534;27;88025;-57
2023/05/12 10:03:31;;;;;;;2.83;2.30;;;;;;;;;;5064778;27;89704;-58
2023/05/12 10:06:00;;;;;;;3.47;2.20;;;;;;;;;;5064486;27;88010;-56
2023/05/12 10:08:30;;;;;;;3.67;2.00;;;;;;;;;;5065074;27;87012;-58
2023/05/12 10:10:59;;;;;;;3.90;2.27;;;;;;;;;;5064457;27;89093;-57
2023/05/12 10:13:27;;;;;;;2.23;1.93;;;;;;;;;;5064471;27;88869;-57
2023/05/12 10:15:57;;;;;;;3.27;1.77;;;;;;;;;;5065070;27;87193;-57
2023/05/12 10:18:25;;;;;;;2.80;1.83;;;;;;;;;;5064055;27;86928;-57
2023/05/12 10:20:54;;;;;;;2.97;2.07;;;;;;;;;;5064335;27;89224;-58
2023/05/12 10:23:22;;;;;;;4.43;1.97;;;;;;;;;;5064723;27;87791;-56
2023/05/12 10:25:50;;;;;;;3.57;1.97;;;;;;;;;;5059074;27;87195;-57
2023/05/12 10:28:19;;;;;;;2.97;2.10;;;;;;;;;;5062936;27;86983;-56
2023/05/12 10:30:49;;;;;;;4.50;2.17;;;;;;;;;;5062647;27;90241;-57
2023/05/12 10:33:18;;;;;;;3.10;1.90;;;;;;;;;;5053044;27;89855;-56
2023/05/12 10:35:47;;;;;;;2.60;1.87;;;;;;;;;;5063833;27;87174;-57
2023/05/12 10:38:18;;;;;;;2.83;2.00;;;;;;;;;;5058514;27;87854;-57
2023/05/12 10:40:53;;;;;;;2.97;1.50;;;;;;;;;;5058667;27;88111;-57
2023/05/12 10:43:22;;;;;;;4.13;2.10;;;;;;;;;;5051278;27;87930;-57
2023/05/12 10:46:06;;;;;;;4.30;2.30;;;;;;;;;;5062297;27;87109;-56
2023/05/12 10:48:35;;;;;;;2.20;1.83;;;;;;;;;;5063916;27;86898;-57
2023/05/12 10:51:10;;;;;;;5.57;1.73;;;;;;;;;;5062763;27;89254;-56
2023/05/12 10:53:38;;;;;;;2.77;1.83;;;;;;;;;;5063070;27;87880;-57
2023/05/12 10:56:23;;;;;;;1.97;1.13;;;;;;;;;;5062483;27;87949;-56
2023/05/12 10:59:08;;;;;;;2.10;1.33;;;;;;;;;;5063672;27;87046;-56
2023/05/12 11:01:37;;;;;;;3.67;1.57;;;;;;;;;;5063576;27;87887;-57
2023/05/12 11:04:15;;;;;;;1.60;1.20;;;;;;;;;;5063564;27;88938;-57
2023/05/12 11:06:44;;;;;;;0.97;0.93;;;;;;;;;;5063839;27;88004;-56
2023/05/12 11:09:14;;;;;;;2.20;1.53;;;;;;;;;;5064181;27;86916;-58
2023/05/12 11:11:44;;;;;;;1.50;1.40;;;;;;;;;;5063793;27;87988;-58
2023/05/12 11:14:13;;;;;;;1.30;1.20;;;;;;;;;;5064426;27;88859;-54
2023/05/12 11:16:44;;;;;;;6.73;2.63;;;;;;;;;;5064240;27;86829;-53
2023/05/12 11:19:12;;;;;;;1.90;1.17;;;;;;;;;;5063540;27;86920;-53
2023/05/12 11:21:42;;;;;;;1.37;1.27;;;;;;;;;;5063031;27;90218;-53
2023/05/12 11:24:11;;;;;;;2.57;1.30;;;;;;;;;;5060037;27;89727;-53
2023/05/12 11:26:42;;;;;;;1.40;1.30;;;;;;;;;;5063382;27;87355;-53
2023/05/12 11:29:10;;;;;;;5.10;1.70;;;;;;;;;;5060838;27;87002;-53
2023/05/12 11:31:38;;;;;;;1.90;1.70;;;;;;;;;;5062873;27;89096;-55
2023/05/12 11:34:07;;;;;;;1.90;1.13;;;;;;;;;;5061748;27;88929;-53
2023/05/12 11:36:41;;;;;;;1.50;1.40;;;;;;;;;;5063251;27;86936;-53
2023/05/12 11:39:16;;;;;;;1.90;1.33;;;;;;;;;;5063812;27;86174;-54
2023/05/12 11:41:44;;;;;;;1.60;1.10;;;;;;;;;;5063026;27;88970;-53
2023/05/12 11:44:14;;;;;;;1.90;1.43;;;;;;;;;;5063039;27;88875;-53
2023/05/12 11:46:42;;;;;;;1.23;1.00;;;;;;;;;;5062961;27;87809;-53
2023/05/12 11:49:11;;;;;;;1.70;1.30;;;;;;;;;;5062517;27;87043;-53
2023/05/12 11:51:42;;;;;;;1.33;1.20;;;;;;;;;;5062639;27;88150;-53
2023/05/12 11:54:11;;;;;;;1.60;1.07;;;;;;;;;;5062434;27;87815;-53
2023/05/12 11:56:47;;;;;;;1.20;1.00;;;;;;;;;;5062743;27;86915;-53
2023/05/12 11:59:15;;;;;;;1.40;1.20;;;;;;;;;;5060138;27;87123;-53
2023/05/12 12:01:45;;;;;;;1.33;1.23;;;;;;;;;;5062150;27;89045;-55
2023/05/12 12:04:13;;;;;;;1.60;1.40;;;;;;;;;;5062958;27;87791;-55
2023/05/12 12:06:45;;;;;;;1.57;1.10;;;;;;;;;;5062384;27;86872;-55
2023/05/12 12:09:13;;;;;;;1.00;0.90;;;;;;;;;;5062647;27;86902;-55
2023/05/12 12:11:43;;;;;;;0.83;0.67;;;;;;;;;;5061700;27;90181;-56
2023/05/12 12:14:11;;;;;;;1.97;0.87;;;;;;;;;;5062560;27;89937;-54
2023/05/12 12:16:39;;;;;;;2.13;0.90;;;;;;;;;;5062937;27;87073;-55
2023/05/12 12:19:08;;;;;;;0.90;0.90;;;;;;;;;;5062133;27;87148;-55
2023/05/12 12:21:36;;;;;;;0.80;0.80;;;;;;;;;;5062140;27;87410;-53
2023/05/12 12:24:05;;;;;;;0.70;0.70;;;;;;;;;;5062206;27;88910;-55
2023/05/12 12:26:33;;;;;;;0.93;0.93;;;;;;;;;;5062441;27;86915;-53
2023/05/12 12:29:03;;;;;;;0.50;0.43;;;;;;;;;;5062901;27;86356;-53
2023/05/12 12:31:33;;;;;;;1.30;0.90;;;;;;;;;;5062291;27;89120;-53
2023/05/12 12:34:02;;;;;;;0.47;0.47;;;;;;;;;;5062215;27;87733;-54
2023/05/12 12:36:31;;;;;;;0.90;0.70;;;;;;;;;;5062064;27;87950;-53
2023/05/12 12:38:59;;;;;;;0.73;0.73;;;;;;;;;;5062463;27;86996;-54
2023/05/12 12:41:27;;;;;;;1.77;1.00;;;;;;;;;;5062372;27;88083;-54
2023/05/12 12:43:55;;;;;;;0.83;0.80;;;;;;;;;;5061804;27;88874;-55
2023/05/12 12:46:25;;;;;;;1.33;0.87;;;;;;;;;;5062233;27;87585;-53
2023/05/12 12:48:56;;;;;;;1.03;0.70;;;;;;;;;;5061975;27;87060;-54
2023/05/12 12:51:25;;;;;;;1.63;0.70;;;;;;;;;;5061936;27;88042;-54
2023/05/12 12:54:11;;;;;;;1.17;0.80;;;;;;;;;;5062408;27;89113;-54
2023/05/12 12:56:40;;;;;;;0.73;0.73;;;;;;;;;;5061969;27;86981;-54
2023/05/12 12:59:09;;;;;;;2.83;0.70;;;;;;;;;;5062057;27;86905;-53
2023/05/12 13:01:38;;;;;;;2.83;0.67;;;;;;;;;;5062023;27;88837;-54
2023/05/12 13:04:06;;;;;;;0.80;0.80;;;;;;;;;;5062104;27;89901;-54
2023/05/12 13:06:35;;;;;;;0.97;0.97;;;;;;;;;;5062545;27;87022;-54
2023/05/12 13:09:03;;;;;;;2.03;1.10;;;;;;;;;;5065056;27;86951;-54
2023/05/12 13:11:32;;;;;;;0.90;0.90;;;;;;;;;;5065574;27;89350;-54
2023/05/12 13:14:03;;;;;;;0.53;0.53;;;;;;;;;;5065121;27;88997;-54
2023/05/12 13:16:31;;;;;;;0.83;0.77;;;;;;;;;;5065511;27;87064;-54
2023/05/12 13:19:01;;;;;;;0.70;0.70;;;;;;;;;;5065900;27;86286;-54
2023/05/12 13:21:30;;;;;;;0.80;0.80;;;;;;;;;;5065701;27;88217;-54
2023/05/12 13:23:58;;;;;;;1.47;0.80;;;;;;;;;;5065373;27;88886;-55
2023/05/12 13:26:27;;;;;;;0.80;0.70;;;;;;;;;;5065138;27;87854;-55
2023/05/12 13:28:55;;;;;;;0.83;0.80;;;;;;;;;;5065480;27;86918;-54
2023/05/12 13:31:23;;;;;;;0.87;0.87;;;;;;;;;;5064828;27;87024;-54
2023/05/12 13:33:52;;;;;;;0.60;0.60;;;;;;;;;;5064968;27;89058;-53
2023/05/12 13:36:21;;;;;;;1.00;0.90;;;;;;;;;;5065025;27;86981;-53
2023/05/12 13:38:50;;;;;;;0.40;0.40;;;;;;;;;;5065188;27;87085;-55
2023/05/12 13:41:18;;;;;;;0.73;0.70;;;;;;;;;;5065480;27;87854;-53
2023/05/12 13:43:47;;;;;;;0.87;0.87;;;;;;;;;;5064978;27;89018;-53
2023/05/12 13:46:15;;;;;;;1.10;0.80;;;;;;;;;;5065422;27;86978;-53
2023/05/12 13:48:43;;;;;;;0.50;0.50;;;;;;;;;;5064623;27;86696;-53
2023/05/12 13:51:12;;;;;;;0.63;0.63;;;;;;;;;;5064225;27;89044;-53
2023/05/12 13:53:41;;;;;;;0.70;0.70;;;;;;;;;;5064886;27;89527;-53
2023/05/12 13:56:10;;;;;;;0.67;0.67;;;;;;;;;;5065272;27;87101;-53
2023/05/12 13:58:38;;;;;;;1.13;0.73;;;;;;;;;;5065360;27;87020;-55
2023/05/12 14:01:07;;;;;;;0.73;0.73;;;;;;;;;;5064673;27;89185;-53
2023/05/12 14:03:36;;;;;;;0.70;0.70;;;;;;;;;;5064978;27;89022;-53
2023/05/12 14:06:05;;;;;;;0.97;0.90;;;;;;;;;;5064894;27;87054;-53
2023/05/12 14:08:33;;;;;;;0.90;0.70;;;;;;;;;;5064925;27;86228;-53
2023/05/12 14:11:03;;;;;;;1.27;1.07;;;;;;;;;;5064665;27;89291;-53
2023/05/12 14:13:31;;;;;;;1.40;1.30;;;;;;;;;;5064114;27;88884;-53
2023/05/12 14:15:59;;;;;;;1.63;1.47;;;;;;;;;;5064173;27;87983;-54
2023/05/12 14:18:27;;;;;;;1.77;1.47;;;;;;;;;;5064321;27;87038;-53
2023/05/12 14:20:56;;;;;;;1.00;0.90;;;;;;;;;;5063111;27;88133;-55
2023/05/12 14:23:25;;;;;;;3.50;1.20;;;;;;;;;;5064071;27;89153;-53
2023/05/12 14:25:54;;;;;;;1.50;1.40;;;;;;;;;;5064570;27;87062;-54
2023/05/12 14:28:24;;;;;;;1.60;1.27;;;;;;;;;;5064244;27;87010;-53
2023/05/12 14:30:52;;;;;;;1.50;1.30;;;;;;;;;;5064125;27;89193;-54
2023/05/12 14:33:21;;;;;;;1.17;1.07;;;;;;;;;;5064755;27;88660;-53
2023/05/12 14:35:49;;;;;;;2.10;1.67;;;;;;;;;;5064497;27;87019;-53
2023/05/12 14:38:33;;;;;;;2.53;1.67;;;;;;;;;;5063971;27;86902;-53
2023/05/12 14:41:01;;;;;;;1.40;1.30;;;;;;;;;;5062989;27;88991;-54
2023/05/12 14:43:31;;;;;;;3.03;1.90;;;;;;;;;;5063907;27;90083;-54
2023/05/12 14:46:00;;;;;;;5.23;1.70;;;;;;;;;;5064503;27;87053;-54
2023/05/12 14:48:29;;;;;;;5.20;0.87;;;;;;;;;;5064017;27;86912;-53
2023/05/12 14:50:57;;;;;;;1.73;1.43;;;;;;;;;;5063989;27;88057;-53
2023/05/12 14:53:26;;;;;;;1.80;1.60;;;;;;;;;;5063672;27;88931;-53
2023/05/12 14:55:54;;;;;;;3.27;1.50;;;;;;;;;;5063862;27;87022;-54